sensor_id;sensor_type;location;lat;lon;timestamp;pressure;altitude;pressure_sealevel;temperature;humidity
10712;BME280;5407;51.234;6.804;2022-07-09T00:02:24;102316.38;;;22.05;56.36
10712;BME280;5407;51.234;6.804;2022-07-09T00:04:52;102309.22;;;21.97;56.44
10712;BME280;5407;51.234;6.804;2022-07-09T00:07:19;102311.94;;;21.97;56.70
10712;BME280;5407;51.234;6.804;2022-07-09T00:09:45;102309.97;;;21.94;56.83
10712;BME280;5407;51.234;6.804;2022-07-09T00:12:12;102317.09;;;22.02;56.57
10712;BME280;5407;51.234;6.804;2022-07-09T00:14:39;102316.16;;;21.84;57.25
10712;BME280;5407;51.234;6.804;2022-07-09T00:17:06;102308.38;;;21.93;56.89
10712;BME280;5407;51.234;6.804;2022-07-09T00:19:32;102304.88;;;21.93;56.89
10712;BME280;5407;51.234;6.804;2022-07-09T00:22:00;102309.53;;;21.89;57.10
10712;BME280;5407;51.234;6.804;2022-07-09T00:24:27;102298.50;;;21.85;57.33
10712;BME280;5407;51.234;6.804;2022-07-09T00:26:54;102301.97;;;21.79;57.67
10712;BME280;5407;51.234;6.804;2022-07-09T00:29:20;102302.72;;;21.76;57.68
10712;BME280;5407;51.234;6.804;2022-07-09T00:31:47;102301.06;;;21.68;58.06
10712;BME280;5407;51.234;6.804;2022-07-09T00:34:13;102299.94;;;21.72;58.00
10712;BME280;5407;51.234;6.804;2022-07-09T00:36:40;102302.69;;;21.72;57.86
10712;BME280;5407;51.234;6.804;2022-07-09T00:39:08;102299.50;;;21.67;58.03
10712;BME280;5407;51.234;6.804;2022-07-09T00:41:35;102295.56;;;21.64;58.35
10712;BME280;5407;51.234;6.804;2022-07-09T00:44:01;102296.38;;;21.68;58.28
10712;BME280;5407;51.234;6.804;2022-07-09T00:46:28;102299.47;;;21.63;58.16
10712;BME280;5407;51.234;6.804;2022-07-09T00:48:55;102290.03;;;21.61;58.17
10712;BME280;5407;51.234;6.804;2022-07-09T00:51:21;102287.63;;;21.59;58.27
10712;BME280;5407;51.234;6.804;2022-07-09T00:53:48;102289.22;;;21.60;58.44
10712;BME280;5407;51.234;6.804;2022-07-09T00:56:17;102283.59;;;21.50;58.79
10712;BME280;5407;51.234;6.804;2022-07-09T00:58:45;102287.53;;;21.52;58.70
10712;BME280;5407;51.234;6.804;2022-07-09T01:01:12;102288.28;;;21.49;58.91
10712;BME280;5407;51.234;6.804;2022-07-09T01:03:38;102284.28;;;21.40;59.40
10712;BME280;5407;51.234;6.804;2022-07-09T01:06:05;102279.13;;;21.35;59.41
10712;BME280;5407;51.234;6.804;2022-07-09T01:08:31;102278.41;;;21.41;59.40
10712;BME280;5407;51.234;6.804;2022-07-09T01:10:58;102285.81;;;21.37;59.41
10712;BME280;5407;51.234;6.804;2022-07-09T01:13:26;102284.97;;;21.33;59.57
10712;BME280;5407;51.234;6.804;2022-07-09T01:15:53;102283.75;;;21.31;59.72
10712;BME280;5407;51.234;6.804;2022-07-09T01:18:20;102287.91;;;21.14;60.37
10712;BME280;5407;51.234;6.804;2022-07-09T01:20:48;102283.25;;;21.18;60.06
10712;BME280;5407;51.234;6.804;2022-07-09T01:23:14;102276.19;;;21.17;60.26
10712;BME280;5407;51.234;6.804;2022-07-09T01:25:41;102280.44;;;21.15;60.40
10712;BME280;5407;51.234;6.804;2022-07-09T01:28:09;102276.13;;;21.14;60.34
10712;BME280;5407;51.234;6.804;2022-07-09T01:30:37;102276.06;;;21.10;60.53
10712;BME280;5407;51.234;6.804;2022-07-09T01:33:04;102276.41;;;21.05;60.75
10712;BME280;5407;51.234;6.804;2022-07-09T01:35:31;102272.19;;;21.11;60.42
10712;BME280;5407;51.234;6.804;2022-07-09T01:37:59;102269.66;;;20.99;61.09
10712;BME280;5407;51.234;6.804;2022-07-09T01:40:25;102273.56;;;20.98;61.18
10712;BME280;5407;51.234;6.804;2022-07-09T01:42:52;102269.34;;;21.04;60.80
10712;BME280;5407;51.234;6.804;2022-07-09T01:45:19;102267.25;;;20.94;61.24
10712;BME280;5407;51.234;6.804;2022-07-09T01:47:46;102268.97;;;21.06;61.07
10712;BME280;5407;51.234;6.804;2022-07-09T01:50:12;102268.91;;;21.02;61.10
10712;BME280;5407;51.234;6.804;2022-07-09T01:52:40;102261.91;;;21.05;61.06
10712;BME280;5407;51.234;6.804;2022-07-09T01:55:08;102260.69;;;21.02;61.00
10712;BME280;5407;51.234;6.804;2022-07-09T01:57:35;102263.50;;;21.09;60.82
10712;BME280;5407;51.234;6.804;2022-07-09T02:00:02;102262.69;;;21.05;60.90
10712;BME280;5407;51.234;6.804;2022-07-09T02:02:37;102258.78;;;21.06;60.84
10712;BME280;5407;51.234;6.804;2022-07-09T02:05:04;102254.84;;;21.07;60.78
10712;BME280;5407;51.234;6.804;2022-07-09T02:07:31;102251.88;;;21.19;60.42
10712;BME280;5407;51.234;6.804;2022-07-09T02:09:58;102252.72;;;21.23;60.43
10712;BME280;5407;51.234;6.804;2022-07-09T02:12:26;102245.88;;;21.10;60.66
10712;BME280;5407;51.234;6.804;2022-07-09T02:14:53;102243.66;;;21.19;60.39
10712;BME280;5407;51.234;6.804;2022-07-09T02:17:19;102246.47;;;21.26;60.31
10712;BME280;5407;51.234;6.804;2022-07-09T02:19:46;102237.84;;;21.28;60.06
10712;BME280;5407;51.234;6.804;2022-07-09T02:22:13;102239.97;;;21.08;60.48
10712;BME280;5407;51.234;6.804;2022-07-09T02:24:39;102246.81;;;21.21;60.16
10712;BME280;5407;51.234;6.804;2022-07-09T02:27:06;102243.31;;;21.24;60.06
10712;BME280;5407;51.234;6.804;2022-07-09T02:29:35;102235.09;;;21.24;60.24
10712;BME280;5407;51.234;6.804;2022-07-09T02:32:01;102241.75;;;21.27;60.05
10712;BME280;5407;51.234;6.804;2022-07-09T02:34:28;102237.84;;;21.28;60.23
10712;BME280;5407;51.234;6.804;2022-07-09T02:36:55;102239.28;;;21.15;60.71
10712;BME280;5407;51.234;6.804;2022-07-09T02:39:21;102235.41;;;21.19;60.47
10712;BME280;5407;51.234;6.804;2022-07-09T02:41:48;102245.50;;;21.12;60.92
10712;BME280;5407;51.234;6.804;2022-07-09T02:44:14;102232.59;;;21.12;60.91
10712;BME280;5407;51.234;6.804;2022-07-09T02:46:43;102244.41;;;21.16;60.85
10712;BME280;5407;51.234;6.804;2022-07-09T02:49:09;102233.84;;;21.18;60.79
10712;BME280;5407;51.234;6.804;2022-07-09T02:51:36;102236.94;;;21.17;60.99
10712;BME280;5407;51.234;6.804;2022-07-09T02:54:03;102235.41;;;21.19;60.99
10712;BME280;5407;51.234;6.804;2022-07-09T02:56:30;102230.28;;;21.18;61.04
10712;BME280;5407;51.234;6.804;2022-07-09T02:58:56;102229.94;;;21.19;60.97
10712;BME280;5407;51.234;6.804;2022-07-09T03:01:23;102225.41;;;21.04;61.48
10712;BME280;5407;51.234;6.804;2022-07-09T03:03:51;102226.59;;;21.03;61.65
10712;BME280;5407;51.234;6.804;2022-07-09T03:06:18;102229.66;;;20.98;61.73
10712;BME280;5407;51.234;6.804;2022-07-09T03:08:45;102228.84;;;20.94;62.06
10712;BME280;5407;51.234;6.804;2022-07-09T03:11:11;102232.00;;;20.96;61.99
10712;BME280;5407;51.234;6.804;2022-07-09T03:13:38;102230.47;;;20.99;62.18
10712;BME280;5407;51.234;6.804;2022-07-09T03:16:05;102224.50;;;20.93;62.23
10712;BME280;5407;51.234;6.804;2022-07-09T03:18:32;102225.81;;;20.73;62.97
10712;BME280;5407;51.234;6.804;2022-07-09T03:21:00;102234.13;;;20.80;62.84
10712;BME280;5407;51.234;6.804;2022-07-09T03:23:27;102229.38;;;20.77;63.01
10712;BME280;5407;51.234;6.804;2022-07-09T03:25:53;102229.50;;;20.84;63.03
10712;BME280;5407;51.234;6.804;2022-07-09T03:28:20;102237.31;;;20.82;63.13
10712;BME280;5407;51.234;6.804;2022-07-09T03:30:47;102229.91;;;20.86;62.94
10712;BME280;5407;51.234;6.804;2022-07-09T03:33:14;102223.00;;;20.70;63.55
10712;BME280;5407;51.234;6.804;2022-07-09T03:35:40;102225.47;;;20.78;63.36
10712;BME280;5407;51.234;6.804;2022-07-09T03:38:08;102223.41;;;20.68;63.63
10712;BME280;5407;51.234;6.804;2022-07-09T03:40:35;102221.50;;;20.72;63.59
10712;BME280;5407;51.234;6.804;2022-07-09T03:43:02;102219.06;;;20.67;63.53
10712;BME280;5407;51.234;6.804;2022-07-09T03:45:28;102223.06;;;20.73;63.63
10712;BME280;5407;51.234;6.804;2022-07-09T03:47:55;102216.38;;;20.71;63.78
10712;BME280;5407;51.234;6.804;2022-07-09T03:50:21;102226.97;;;20.72;63.59
10712;BME280;5407;51.234;6.804;2022-07-09T03:52:48;102224.66;;;20.74;63.73
10712;BME280;5407;51.234;6.804;2022-07-09T03:55:16;102227.75;;;20.73;63.82
10712;BME280;5407;51.234;6.804;2022-07-09T03:57:43;102226.16;;;20.68;64.00
10712;BME280;5407;51.234;6.804;2022-07-09T04:00:10;102223.06;;;20.73;63.81
10712;BME280;5407;51.234;6.804;2022-07-09T04:02:39;102217.38;;;20.60;64.34
10712;BME280;5407;51.234;6.804;2022-07-09T04:05:06;102218.69;;;20.69;64.18
10712;BME280;5407;51.234;6.804;2022-07-09T04:07:34;102216.78;;;20.73;64.10
10712;BME280;5407;51.234;6.804;2022-07-09T04:10:00;102222.69;;;20.75;63.99
10712;BME280;5407;51.234;6.804;2022-07-09T04:12:28;102224.97;;;20.69;64.12
10712;BME280;5407;51.234;6.804;2022-07-09T04:14:55;102220.53;;;20.62;64.67
10712;BME280;5407;51.234;6.804;2022-07-09T04:17:22;102222.97;;;20.67;64.68
10712;BME280;5407;51.234;6.804;2022-07-09T04:19:48;102216.03;;;20.76;64.25
10712;BME280;5407;51.234;6.804;2022-07-09T04:22:15;102220.75;;;20.75;64.29
10712;BME280;5407;51.234;6.804;2022-07-09T04:24:42;102226.16;;;20.72;64.45
10712;BME280;5407;51.234;6.804;2022-07-09T04:27:08;102230.81;;;20.68;64.56
10712;BME280;5407;51.234;6.804;2022-07-09T04:29:36;102231.72;;;20.75;64.39
10712;BME280;5407;51.234;6.804;2022-07-09T04:32:03;102226.22;;;20.75;64.45
10712;BME280;5407;51.234;6.804;2022-07-09T04:34:30;102208.88;;;20.68;64.73
10712;BME280;5407;51.234;6.804;2022-07-09T04:36:57;102223.16;;;20.80;64.44
10712;BME280;5407;51.234;6.804;2022-07-09T04:39:23;102230.22;;;20.81;64.48
10712;BME280;5407;51.234;6.804;2022-07-09T04:41:50;102223.84;;;20.74;64.97
10712;BME280;5407;51.234;6.804;2022-07-09T04:44:17;102228.59;;;20.77;64.88
10712;BME280;5407;51.234;6.804;2022-07-09T04:46:45;102232.53;;;20.79;64.89
10712;BME280;5407;51.234;6.804;2022-07-09T04:49:11;102233.72;;;20.78;64.94
10712;BME280;5407;51.234;6.804;2022-07-09T04:51:38;102226.34;;;20.82;64.76
10712;BME280;5407;51.234;6.804;2022-07-09T04:54:05;102235.00;;;20.84;64.88
10712;BME280;5407;51.234;6.804;2022-07-09T04:56:31;102234.91;;;20.81;65.23
10712;BME280;5407;51.234;6.804;2022-07-09T04:58:58;102229.91;;;20.86;64.87
10712;BME280;5407;51.234;6.804;2022-07-09T05:01:27;102224.84;;;20.88;65.05
10712;BME280;5407;51.234;6.804;2022-07-09T05:03:56;102228.81;;;20.91;64.96
10712;BME280;5407;51.234;6.804;2022-07-09T05:06:22;102221.78;;;20.93;64.89
10712;BME280;5407;51.234;6.804;2022-07-09T05:08:49;102231.16;;;20.92;64.98
10712;BME280;5407;51.234;6.804;2022-07-09T05:11:16;102233.44;;;20.87;65.43
10712;BME280;5407;51.234;6.804;2022-07-09T05:13:42;102228.06;;;20.94;65.13
10712;BME280;5407;51.234;6.804;2022-07-09T05:16:10;102229.50;;;20.84;65.74
10712;BME280;5407;51.234;6.804;2022-07-09T05:18:36;102236.50;;;20.82;65.72
10712;BME280;5407;51.234;6.804;2022-07-09T05:21:05;102233.50;;;20.90;65.57
10712;BME280;5407;51.234;6.804;2022-07-09T05:23:31;102235.06;;;20.91;65.46
10712;BME280;5407;51.234;6.804;2022-07-09T05:25:58;102246.09;;;20.95;65.39
10712;BME280;5407;51.234;6.804;2022-07-09T05:28:25;102247.69;;;20.96;65.44
10712;BME280;5407;51.234;6.804;2022-07-09T05:30:52;102242.13;;;20.92;65.35
10712;BME280;5407;51.234;6.804;2022-07-09T05:33:19;102243.34;;;20.95;65.34
10712;BME280;5407;51.234;6.804;2022-07-09T05:35:45;102251.53;;;20.91;65.67
10712;BME280;5407;51.234;6.804;2022-07-09T05:38:13;102253.88;;;20.89;65.88
10712;BME280;5407;51.234;6.804;2022-07-09T05:40:40;102244.88;;;20.92;66.05
10712;BME280;5407;51.234;6.804;2022-07-09T05:43:06;102242.13;;;20.92;65.88
10712;BME280;5407;51.234;6.804;2022-07-09T05:45:33;102250.03;;;20.97;65.86
10712;BME280;5407;51.234;6.804;2022-07-09T05:48:00;102240.66;;;20.98;66.07
10712;BME280;5407;51.234;6.804;2022-07-09T05:50:26;102249.25;;;20.97;66.01
10712;BME280;5407;51.234;6.804;2022-07-09T05:52:53;102248.47;;;20.96;66.38
10712;BME280;5407;51.234;6.804;2022-07-09T05:55:21;102244.63;;;21.04;65.98
10712;BME280;5407;51.234;6.804;2022-07-09T05:57:47;102240.66;;;20.98;66.38
10712;BME280;5407;51.234;6.804;2022-07-09T06:00:14;102238.44;;;21.11;65.98
10712;BME280;5407;51.234;6.804;2022-07-09T06:02:42;102247.91;;;21.13;66.08
10712;BME280;5407;51.234;6.804;2022-07-09T06:05:08;102240.78;;;21.09;66.09
10712;BME280;5407;51.234;6.804;2022-07-09T06:07:35;102242.91;;;21.22;66.00
10712;BME280;5407;51.234;6.804;2022-07-09T06:10:02;102243.31;;;21.24;65.60
10712;BME280;5407;51.234;6.804;2022-07-09T06:12:30;102238.66;;;21.28;65.46
10712;BME280;5407;51.234;6.804;2022-07-09T06:14:56;102242.16;;;21.25;65.41
10712;BME280;5407;51.234;6.804;2022-07-09T06:17:23;102236.31;;;21.30;65.46
10712;BME280;5407;51.234;6.804;2022-07-09T06:19:50;102237.91;;;21.31;65.41
10712;BME280;5407;51.234;6.804;2022-07-09T06:22:16;102236.25;;;21.27;65.69
10712;BME280;5407;51.234;6.804;2022-07-09T06:24:43;102226.16;;;21.34;65.34
10712;BME280;5407;51.234;6.804;2022-07-09T06:27:09;102226.22;;;21.38;65.09
10712;BME280;5407;51.234;6.804;2022-07-09T06:29:38;102230.47;;;21.35;64.92
10712;BME280;5407;51.234;6.804;2022-07-09T06:32:05;102224.72;;;21.47;64.70
10712;BME280;5407;51.234;6.804;2022-07-09T06:34:32;102220.31;;;21.39;64.92
10712;BME280;5407;51.234;6.804;2022-07-09T06:36:58;102222.72;;;21.44;64.78
10712;BME280;5407;51.234;6.804;2022-07-09T06:39:25;102224.78;;;21.54;64.29
10712;BME280;5407;51.234;6.804;2022-07-09T06:42:09;102225.63;;;21.58;63.86
10712;BME280;5407;51.234;6.804;2022-07-09T06:44:36;102220.13;;;21.58;63.74
10712;BME280;5407;51.234;6.804;2022-07-09T06:47:04;102223.28;;;21.60;63.57
10712;BME280;5407;51.234;6.804;2022-07-09T06:49:31;102221.31;;;21.57;63.47
10712;BME280;5407;51.234;6.804;2022-07-09T06:51:58;102231.22;;;21.65;63.05
10712;BME280;5407;51.234;6.804;2022-07-09T06:54:25;102226.88;;;21.64;62.70
10712;BME280;5407;51.234;6.804;2022-07-09T06:56:51;102225.59;;;21.55;62.58
10712;BME280;5407;51.234;6.804;2022-07-09T06:59:18;102225.63;;;21.58;62.34
10712;BME280;5407;51.234;6.804;2022-07-09T07:01:47;102228.06;;;21.63;62.26
10712;BME280;5407;51.234;6.804;2022-07-09T07:04:15;102224.97;;;21.72;62.22
10712;BME280;5407;51.234;6.804;2022-07-09T07:06:41;102228.94;;;21.74;62.03
10712;BME280;5407;51.234;6.804;2022-07-09T07:09:08;102225.78;;;21.72;61.59
10712;BME280;5407;51.234;6.804;2022-07-09T07:11:35;102229.75;;;21.78;61.07
10712;BME280;5407;51.234;6.804;2022-07-09T07:14:02;102228.22;;;21.84;60.80
10712;BME280;5407;51.234;6.804;2022-07-09T07:16:28;102228.63;;;21.86;60.95
10712;BME280;5407;51.234;6.804;2022-07-09T07:18:55;102229.41;;;21.83;60.98
10712;BME280;5407;51.234;6.804;2022-07-09T07:21:23;102226.25;;;21.81;60.96
10712;BME280;5407;51.234;6.804;2022-07-09T07:23:50;102226.66;;;21.83;60.86
10712;BME280;5407;51.234;6.804;2022-07-09T07:26:16;102229.09;;;21.95;60.30
10712;BME280;5407;51.234;6.804;2022-07-09T07:28:43;102229.16;;;22.02;59.53
10712;BME280;5407;51.234;6.804;2022-07-09T07:31:09;102234.25;;;22.00;59.61
10712;BME280;5407;51.234;6.804;2022-07-09T07:33:36;102239.81;;;22.07;59.25
10712;BME280;5407;51.234;6.804;2022-07-09T07:36:03;102231.22;;;22.12;59.27
10712;BME280;5407;51.234;6.804;2022-07-09T07:38:32;102238.75;;;22.22;58.87
10712;BME280;5407;51.234;6.804;2022-07-09T07:40:58;102234.06;;;22.26;58.25
10712;BME280;5407;51.234;6.804;2022-07-09T07:43:25;102236.06;;;22.32;58.00
10712;BME280;5407;51.234;6.804;2022-07-09T07:45:51;102228.66;;;22.36;58.19
10712;BME280;5407;51.234;6.804;2022-07-09T07:48:18;102236.59;;;22.48;58.09
10712;BME280;5407;51.234;6.804;2022-07-09T07:50:45;102237.78;;;22.51;57.61
10712;BME280;5407;51.234;6.804;2022-07-09T07:53:12;102241.38;;;22.62;57.19
10712;BME280;5407;51.234;6.804;2022-07-09T07:55:40;102236.66;;;22.59;56.75
10712;BME280;5407;51.234;6.804;2022-07-09T07:58:07;102234.31;;;22.64;56.69
10712;BME280;5407;51.234;6.804;2022-07-09T08:00:33;102236.69;;;22.66;57.02
10712;BME280;5407;51.234;6.804;2022-07-09T08:03:00;102241.03;;;22.74;56.87
10712;BME280;5407;51.234;6.804;2022-07-09T08:05:26;102229.66;;;22.79;56.95
10712;BME280;5407;51.234;6.804;2022-07-09T08:07:53;102219.44;;;22.83;56.76
10712;BME280;5407;51.234;6.804;2022-07-09T08:10:19;102226.53;;;22.84;56.90
10712;BME280;5407;51.234;6.804;2022-07-09T08:12:48;102222.22;;;22.90;56.91
10712;BME280;5407;51.234;6.804;2022-07-09T08:15:14;102226.97;;;22.96;56.67
10712;BME280;5407;51.234;6.804;2022-07-09T08:17:41;102218.69;;;22.93;56.65
10712;BME280;5407;51.234;6.804;2022-07-09T08:20:08;102223.44;;;22.96;56.24
10712;BME280;5407;51.234;6.804;2022-07-09T08:22:35;102224.28;;;23.07;56.01
10712;BME280;5407;51.234;6.804;2022-07-09T08:25:02;102227.06;;;23.14;55.64
10712;BME280;5407;51.234;6.804;2022-07-09T08:27:29;102223.84;;;22.98;55.24
10712;BME280;5407;51.234;6.804;2022-07-09T08:29:57;102225.91;;;23.15;54.81
10712;BME280;5407;51.234;6.804;2022-07-09T08:32:23;102218.06;;;23.24;54.08
10712;BME280;5407;51.234;6.804;2022-07-09T08:34:50;102217.28;;;23.27;54.10
10712;BME280;5407;51.234;6.804;2022-07-09T08:37:17;102218.84;;;23.35;53.70
10712;BME280;5407;51.234;6.804;2022-07-09T08:39:43;102223.59;;;23.41;53.51
10712;BME280;5407;51.234;6.804;2022-07-09T08:42:10;102222.78;;;23.34;53.59
10712;BME280;5407;51.234;6.804;2022-07-09T08:44:37;102215.72;;;23.40;53.04
10712;BME280;5407;51.234;6.804;2022-07-09T08:47:06;102208.22;;;23.37;53.29
10712;BME280;5407;51.234;6.804;2022-07-09T08:49:33;102211.00;;;23.37;52.96
10712;BME280;5407;51.234;6.804;2022-07-09T08:52:00;102203.13;;;23.35;52.43
10712;BME280;5407;51.234;6.804;2022-07-09T08:54:28;102186.59;;;23.39;51.56
10712;BME280;5407;51.234;6.804;2022-07-09T08:56:55;102183.06;;;23.45;51.49
10712;BME280;5407;51.234;6.804;2022-07-09T08:59:21;102176.41;;;23.50;51.09
10712;BME280;5407;51.234;6.804;2022-07-09T09:01:48;102182.28;;;23.55;50.77
10712;BME280;5407;51.234;6.804;2022-07-09T09:04:16;102171.66;;;23.57;50.99
10712;BME280;5407;51.234;6.804;2022-07-09T09:06:43;102183.09;;;23.66;50.83
10712;BME280;5407;51.234;6.804;2022-07-09T09:09:16;102163.78;;;23.63;50.48
10712;BME280;5407;51.234;6.804;2022-07-09T09:11:46;102169.31;;;23.70;49.82
10712;BME280;5407;51.234;6.804;2022-07-09T09:14:17;102166.16;;;23.71;49.34
10712;BME280;5407;51.234;6.804;2022-07-09T09:16:45;102160.63;;;23.74;49.20
10712;BME280;5407;51.234;6.804;2022-07-09T09:19:11;102165.75;;;23.79;48.96
10712;BME280;5407;51.234;6.804;2022-07-09T09:21:40;102162.22;;;23.75;49.47
10712;BME280;5407;51.234;6.804;2022-07-09T09:24:06;102148.84;;;23.84;49.43
10712;BME280;5407;51.234;6.804;2022-07-09T09:26:33;102143.72;;;23.86;49.22
10712;BME280;5407;51.234;6.804;2022-07-09T09:29:01;102155.94;;;23.85;49.85
10712;BME280;5407;51.234;6.804;2022-07-09T09:31:28;102144.91;;;23.89;49.29
10712;BME280;5407;51.234;6.804;2022-07-09T09:33:56;102152.38;;;24.02;48.98
10712;BME280;5407;51.234;6.804;2022-07-09T09:36:27;102157.88;;;24.02;48.73
10712;BME280;5407;51.234;6.804;2022-07-09T09:38:55;102155.91;;;23.96;48.67
10712;BME280;5407;51.234;6.804;2022-07-09T09:41:33;102154.31;;;24.12;48.92
10712;BME280;5407;51.234;6.804;2022-07-09T09:43:59;102166.06;;;24.30;48.26
10712;BME280;5407;51.234;6.804;2022-07-09T09:46:30;102161.34;;;24.41;47.75
10712;BME280;5407;51.234;6.804;2022-07-09T09:48:56;102163.69;;;24.53;47.34
10712;BME280;5407;51.234;6.804;2022-07-09T09:51:23;102165.25;;;24.54;46.99
10712;BME280;5407;51.234;6.804;2022-07-09T09:53:51;102155.78;;;24.55;47.36
10712;BME280;5407;51.234;6.804;2022-07-09T09:56:20;102155.78;;;24.55;46.96
10712;BME280;5407;51.234;6.804;2022-07-09T09:58:47;102142.34;;;24.68;47.03
10712;BME280;5407;51.234;6.804;2022-07-09T10:01:13;102144.63;;;24.80;46.72
10712;BME280;5407;51.234;6.804;2022-07-09T10:03:40;102147.72;;;24.89;45.98
10712;BME280;5407;51.234;6.804;2022-07-09T10:06:07;102148.13;;;24.91;45.81
10712;BME280;5407;51.234;6.804;2022-07-09T10:08:34;102139.72;;;25.05;46.07
10712;BME280;5407;51.234;6.804;2022-07-09T10:11:00;102135.75;;;25.13;45.79
10712;BME280;5407;51.234;6.804;2022-07-09T10:13:28;102138.03;;;25.28;45.59
10712;BME280;5407;51.234;6.804;2022-07-09T10:15:55;102132.84;;;25.37;45.60
10712;BME280;5407;51.234;6.804;2022-07-09T10:18:22;102128.44;;;25.43;45.46
10712;BME280;5407;51.234;6.804;2022-07-09T10:20:54;102120.41;;;25.59;45.39
10712;BME280;5407;51.234;6.804;2022-07-09T10:23:21;102131.53;;;25.52;44.82
10712;BME280;5407;51.234;6.804;2022-07-09T10:25:49;102125.94;;;25.59;43.64
10712;BME280;5407;51.234;6.804;2022-07-09T10:28:18;102128.25;;;25.64;43.71
10712;BME280;5407;51.234;6.804;2022-07-09T10:30:46;102121.97;;;25.60;43.56
10712;BME280;5407;51.234;6.804;2022-07-09T10:33:13;102120.53;;;25.45;44.25
10712;BME280;5407;51.234;6.804;2022-07-09T10:35:45;102121.22;;;25.59;43.82
10712;BME280;5407;51.234;6.804;2022-07-09T10:38:12;102115.69;;;25.59;44.11
10712;BME280;5407;51.234;6.804;2022-07-09T10:40:39;102111.78;;;25.53;44.09
10712;BME280;5407;51.234;6.804;2022-07-09T10:43:07;102120.47;;;25.52;44.24
10712;BME280;5407;51.234;6.804;2022-07-09T10:45:37;102107.03;;;25.54;44.38
10712;BME280;5407;51.234;6.804;2022-07-09T10:48:05;102110.97;;;25.56;44.60
10712;BME280;5407;51.234;6.804;2022-07-09T10:50:35;102106.59;;;25.59;44.78
10712;BME280;5407;51.234;6.804;2022-07-09T10:53:02;102102.69;;;25.53;45.01
10712;BME280;5407;51.234;6.804;2022-07-09T10:55:29;102100.97;;;25.69;44.79
10712;BME280;5407;51.234;6.804;2022-07-09T10:57:56;102101.97;;;25.89;44.83
10712;BME280;5407;51.234;6.804;2022-07-09T11:00:23;102100.69;;;25.97;44.37
10712;BME280;5407;51.234;6.804;2022-07-09T11:02:51;102100.38;;;25.92;43.49
10712;BME280;5407;51.234;6.804;2022-07-09T11:05:19;102096.25;;;26.07;43.31
10712;BME280;5407;51.234;6.804;2022-07-09T11:07:53;102096.91;;;26.18;42.89
10712;BME280;5407;51.234;6.804;2022-07-09T11:10:20;102091.69;;;26.27;42.44
10712;BME280;5407;51.234;6.804;2022-07-09T11:12:47;102085.97;;;26.41;42.64
10712;BME280;5407;51.234;6.804;2022-07-09T11:15:16;102084.09;;;26.64;42.19
10712;BME280;5407;51.234;6.804;2022-07-09T11:17:43;102087.38;;;26.82;41.73
10712;BME280;5407;51.234;6.804;2022-07-09T11:20:10;102090.69;;;27.00;41.75
10712;BME280;5407;51.234;6.804;2022-07-09T11:22:38;102091.81;;;27.02;41.14
10712;BME280;5407;51.234;6.804;2022-07-09T11:25:05;102081.75;;;27.15;40.97
10712;BME280;5407;51.234;6.804;2022-07-09T11:27:31;102086.28;;;27.02;40.95
10712;BME280;5407;51.234;6.804;2022-07-09T11:30:01;102075.78;;;26.90;41.59
10712;BME280;5407;51.234;6.804;2022-07-09T11:32:29;102063.59;;;26.85;41.42
10712;BME280;5407;51.234;6.804;2022-07-09T11:34:56;102056.25;;;26.75;41.72
10712;BME280;5407;51.234;6.804;2022-07-09T11:37:23;102061.41;;;26.46;42.11
10712;BME280;5407;51.234;6.804;2022-07-09T11:39:52;102063.53;;;26.32;42.31
10712;BME280;5407;51.234;6.804;2022-07-09T11:42:19;102068.75;;;26.26;42.82
10712;BME280;5407;51.234;6.804;2022-07-09T11:44:52;102058.16;;;26.18;42.99
10712;BME280;5407;51.234;6.804;2022-07-09T11:47:19;102064.47;;;26.22;43.51
10712;BME280;5407;51.234;6.804;2022-07-09T11:49:48;102065.88;;;26.33;43.20
10712;BME280;5407;51.234;6.804;2022-07-09T11:52:16;102050.94;;;26.27;43.67
10712;BME280;5407;51.234;6.804;2022-07-09T11:54:55;102052.56;;;26.25;43.60
10712;BME280;5407;51.234;6.804;2022-07-09T11:57:22;102051.16;;;26.10;43.71
10712;BME280;5407;51.234;6.804;2022-07-09T11:59:48;102049.69;;;26.02;43.87
10712;BME280;5407;51.234;6.804;2022-07-09T12:02:22;102045.06;;;25.92;43.97
10712;BME280;5407;51.234;6.804;2022-07-09T12:04:49;102045.63;;;25.73;44.67
10712;BME280;5407;51.234;6.804;2022-07-09T12:07:15;102054.81;;;25.63;44.84
10712;BME280;5407;51.234;6.804;2022-07-09T12:09:42;102048.63;;;25.52;46.07
10712;BME280;5407;51.234;6.804;2022-07-09T12:12:10;102043.91;;;25.49;46.32
10712;BME280;5407;51.234;6.804;2022-07-09T12:14:37;102026.50;;;25.52;46.64
10712;BME280;5407;51.234;6.804;2022-07-09T12:17:03;102021.56;;;25.70;46.44
10712;BME280;5407;51.234;6.804;2022-07-09T12:19:30;102018.06;;;26.03;45.81
10712;BME280;5407;51.234;6.804;2022-07-09T12:21:57;102019.91;;;26.43;44.66
10712;BME280;5407;51.234;6.804;2022-07-09T12:24:23;102015.69;;;26.88;43.99
10712;BME280;5407;51.234;6.804;2022-07-09T12:26:50;102011.50;;;27.25;43.34
10712;BME280;5407;51.234;6.804;2022-07-09T12:29:18;101997.41;;;27.59;42.60
10712;BME280;5407;51.234;6.804;2022-07-09T12:31:45;101996.81;;;27.90;41.70
10712;BME280;5407;51.234;6.804;2022-07-09T12:34:11;101996.84;;;28.26;41.25
10712;BME280;5407;51.234;6.804;2022-07-09T12:36:38;102008.03;;;28.57;40.60
10712;BME280;5407;51.234;6.804;2022-07-09T12:39:06;102008.66;;;28.81;40.37
10712;BME280;5407;51.234;6.804;2022-07-09T12:41:33;102006.44;;;28.92;39.83
10712;BME280;5407;51.234;6.804;2022-07-09T12:43:59;102002.44;;;28.93;39.74
10712;BME280;5407;51.234;6.804;2022-07-09T12:46:27;101999.66;;;28.93;39.37
10712;BME280;5407;51.234;6.804;2022-07-09T12:48:54;101990.19;;;29.06;39.08
10712;BME280;5407;51.234;6.804;2022-07-09T12:51:21;101992.19;;;28.90;38.99
10712;BME280;5407;51.234;6.804;2022-07-09T12:53:47;101996.50;;;28.75;39.25
10712;BME280;5407;51.234;6.804;2022-07-09T12:56:14;101999.53;;;28.64;39.39
10712;BME280;5407;51.234;6.804;2022-07-09T12:58:41;101987.78;;;28.41;40.27
10712;BME280;5407;51.234;6.804;2022-07-09T13:01:07;101989.53;;;28.35;40.75